sensor_id;sensor_type;location;lat;lon;timestamp;P1;durP1;ratioP1;P2;durP2;ratioP2
74707;SDS011;63360;50.104;8.074;2023-05-14T00:01:13;5.30;;;3.30;;
74707;SDS011;63360;50.104;8.074;2023-05-14T00:03:40;6.00;;;3.88;;
74707;SDS011;63360;50.104;8.074;2023-05-14T00:06:06;7.25;;;3.88;;
74707;SDS011;63360;50.104;8.074;2023-05-14T00:08:34;5.53;;;3.50;;
74707;SDS011;63360;50.104;8.074;2023-05-14T00:11:00;5.80;;;3.80;;
74707;SDS011;63360;50.104;8.074;2023-05-14T00:13:27;8.02;;;3.90;;
74707;SDS011;63360;50.104;8.074;2023-05-14T00:15:54;7.88;;;4.00;;
74707;SDS011;63360;50.104;8.074;2023-05-14T00:18:20;6.68;;;3.88;;
74707;SDS011;63360;50.104;8.074;2023-05-14T00:20:47;6.88;;;4.20;;
74707;SDS011;63360;50.104;8.074;2023-05-14T00:23:13;5.60;;;3.90;;
74707;SDS011;63360;50.104;8.074;2023-05-14T00:25:39;7.03;;;4.13;;
74707;SDS011;63360;50.104;8.074;2023-05-14T00:28:06;5.50;;;3.70;;
74707;SDS011;63360;50.104;8.074;2023-05-14T00:30:32;6.55;;;4.28;;
74707;SDS011;63360;50.104;8.074;2023-05-14T00:32:59;6.63;;;4.32;;
74707;SDS011;63360;50.104;8.074;2023-05-14T00:35:26;6.63;;;4.30;;
74707;SDS011;63360;50.104;8.074;2023-05-14T00:37:53;7.63;;;4.28;;
74707;SDS011;63360;50.104;8.074;2023-05-14T00:40:19;8.75;;;4.60;;
74707;SDS011;63360;50.104;8.074;2023-05-14T00:42:50;8.45;;;4.20;;
74707;SDS011;63360;50.104;8.074;2023-05-14T00:45:17;7.13;;;4.43;;
74707;SDS011;63360;50.104;8.074;2023-05-14T00:47:43;7.23;;;4.67;;
74707;SDS011;63360;50.104;8.074;2023-05-14T00:50:10;7.32;;;4.18;;
74707;SDS011;63360;50.104;8.074;2023-05-14T00:52:37;6.90;;;4.50;;
74707;SDS011;63360;50.104;8.074;2023-05-14T00:55:04;9.13;;;4.80;;
74707;SDS011;63360;50.104;8.074;2023-05-14T00:57:32;9.77;;;4.72;;
74707;SDS011;63360;50.104;8.074;2023-05-14T00:59:59;6.97;;;4.40;;
74707;SDS011;63360;50.104;8.074;2023-05-14T01:02:26;6.68;;;4.32;;
74707;SDS011;63360;50.104;8.074;2023-05-14T01:04:52;9.93;;;4.82;;
74707;SDS011;63360;50.104;8.074;2023-05-14T01:07:34;7.43;;;4.30;;
74707;SDS011;63360;50.104;8.074;2023-05-14T01:11:05;9.20;;;4.80;;
74707;SDS011;63360;50.104;8.074;2023-05-14T01:15:58;6.70;;;4.07;;
74707;SDS011;63360;50.104;8.074;2023-05-14T01:18:26;7.18;;;4.60;;
74707;SDS011;63360;50.104;8.074;2023-05-14T01:20:53;7.30;;;4.65;;
74707;SDS011;63360;50.104;8.074;2023-05-14T01:23:20;7.10;;;4.53;;
74707;SDS011;63360;50.104;8.074;2023-05-14T01:25:46;7.37;;;4.87;;
74707;SDS011;63360;50.104;8.074;2023-05-14T01:28:16;8.07;;;4.70;;
74707;SDS011;63360;50.104;8.074;2023-05-14T01:30:45;7.35;;;4.50;;
74707;SDS011;63360;50.104;8.074;2023-05-14T01:33:53;11.10;;;4.60;;
74707;SDS011;63360;50.104;8.074;2023-05-14T01:36:23;8.85;;;4.63;;
74707;SDS011;63360;50.104;8.074;2023-05-14T01:38:50;6.07;;;4.00;;
74707;SDS011;63360;50.104;8.074;2023-05-14T01:41:17;9.57;;;4.30;;
74707;SDS011;63360;50.104;8.074;2023-05-14T01:43:44;7.03;;;4.13;;
74707;SDS011;63360;50.104;8.074;2023-05-14T01:46:10;6.50;;;4.15;;
74707;SDS011;63360;50.104;8.074;2023-05-14T01:48:37;7.50;;;4.80;;
74707;SDS011;63360;50.104;8.074;2023-05-14T01:51:03;6.60;;;4.20;;
74707;SDS011;63360;50.104;8.074;2023-05-14T01:53:30;6.95;;;4.13;;
74707;SDS011;63360;50.104;8.074;2023-05-14T01:55:56;6.60;;;4.13;;
74707;SDS011;63360;50.104;8.074;2023-05-14T01:58:22;6.35;;;4.10;;
74707;SDS011;63360;50.104;8.074;2023-05-14T02:00:49;7.13;;;4.20;;
74707;SDS011;63360;50.104;8.074;2023-05-14T02:03:15;9.37;;;4.40;;
74707;SDS011;63360;50.104;8.074;2023-05-14T02:05:42;8.68;;;4.40;;
74707;SDS011;63360;50.104;8.074;2023-05-14T02:08:08;11.23;;;4.80;;
74707;SDS011;63360;50.104;8.074;2023-05-14T02:10:34;7.38;;;4.65;;
74707;SDS011;63360;50.104;8.074;2023-05-14T02:13:01;7.35;;;4.63;;
74707;SDS011;63360;50.104;8.074;2023-05-14T02:15:28;9.50;;;4.80;;
74707;SDS011;63360;50.104;8.074;2023-05-14T02:17:55;8.80;;;5.30;;
74707;SDS011;63360;50.104;8.074;2023-05-14T02:20:21;7.20;;;4.65;;
74707;SDS011;63360;50.104;8.074;2023-05-14T02:22:48;7.65;;;5.13;;
74707;SDS011;63360;50.104;8.074;2023-05-14T02:25:14;6.07;;;3.88;;
74707;SDS011;63360;50.104;8.074;2023-05-14T02:27:41;7.70;;;4.80;;
74707;SDS011;63360;50.104;8.074;2023-05-14T02:30:08;7.55;;;4.82;;
74707;SDS011;63360;50.104;8.074;2023-05-14T02:32:35;7.90;;;4.90;;
74707;SDS011;63360;50.104;8.074;2023-05-14T02:35:02;8.43;;;5.03;;
74707;SDS011;63360;50.104;8.074;2023-05-14T02:37:28;8.25;;;5.20;;
74707;SDS011;63360;50.104;8.074;2023-05-14T02:39:55;7.93;;;5.03;;
74707;SDS011;63360;50.104;8.074;2023-05-14T02:42:21;8.95;;;5.00;;
74707;SDS011;63360;50.104;8.074;2023-05-14T02:44:47;8.50;;;4.72;;
74707;SDS011;63360;50.104;8.074;2023-05-14T02:47:14;8.65;;;5.15;;
74707;SDS011;63360;50.104;8.074;2023-05-14T02:49:40;9.13;;;5.45;;
74707;SDS011;63360;50.104;8.074;2023-05-14T02:52:06;10.43;;;5.33;;
74707;SDS011;63360;50.104;8.074;2023-05-14T02:54:33;9.55;;;5.50;;
74707;SDS011;63360;50.104;8.074;2023-05-14T02:56:59;9.20;;;5.63;;
74707;SDS011;63360;50.104;8.074;2023-05-14T02:59:26;10.07;;;5.38;;
74707;SDS011;63360;50.104;8.074;2023-05-14T03:01:53;11.18;;;6.07;;
74707;SDS011;63360;50.104;8.074;2023-05-14T03:04:19;9.10;;;5.17;;
74707;SDS011;63360;50.104;8.074;2023-05-14T03:06:46;9.90;;;5.60;;
74707;SDS011;63360;50.104;8.074;2023-05-14T03:09:12;12.20;;;5.90;;
74707;SDS011;63360;50.104;8.074;2023-05-14T03:11:39;9.75;;;5.75;;
74707;SDS011;63360;50.104;8.074;2023-05-14T03:14:05;9.88;;;6.00;;
74707;SDS011;63360;50.104;8.074;2023-05-14T03:16:32;10.70;;;5.70;;
74707;SDS011;63360;50.104;8.074;2023-05-14T03:18:58;9.98;;;5.45;;
74707;SDS011;63360;50.104;8.074;2023-05-14T03:21:25;9.50;;;5.82;;
74707;SDS011;63360;50.104;8.074;2023-05-14T03:23:51;10.15;;;5.80;;
74707;SDS011;63360;50.104;8.074;2023-05-14T03:26:18;11.85;;;5.65;;
74707;SDS011;63360;50.104;8.074;2023-05-14T03:28:46;9.33;;;5.83;;
74707;SDS011;63360;50.104;8.074;2023-05-14T03:31:13;11.95;;;5.90;;
74707;SDS011;63360;50.104;8.074;2023-05-14T03:33:39;10.18;;;5.97;;
74707;SDS011;63360;50.104;8.074;2023-05-14T03:36:06;11.48;;;6.18;;
74707;SDS011;63360;50.104;8.074;2023-05-14T03:38:32;9.40;;;5.68;;
74707;SDS011;63360;50.104;8.074;2023-05-14T03:40:59;10.33;;;6.37;;
74707;SDS011;63360;50.104;8.074;2023-05-14T03:43:25;11.57;;;6.68;;
74707;SDS011;63360;50.104;8.074;2023-05-14T03:45:51;13.25;;;6.40;;
74707;SDS011;63360;50.104;8.074;2023-05-14T03:48:18;11.35;;;6.68;;
74707;SDS011;63360;50.104;8.074;2023-05-14T03:50:45;11.02;;;6.72;;
74707;SDS011;63360;50.104;8.074;2023-05-14T03:53:12;10.97;;;6.83;;
74707;SDS011;63360;50.104;8.074;2023-05-14T03:55:38;11.25;;;6.35;;
74707;SDS011;63360;50.104;8.074;2023-05-14T03:58:04;11.00;;;6.07;;
74707;SDS011;63360;50.104;8.074;2023-05-14T04:00:36;11.40;;;6.60;;
74707;SDS011;63360;50.104;8.074;2023-05-14T04:03:02;11.60;;;6.93;;
74707;SDS011;63360;50.104;8.074;2023-05-14T04:05:29;11.40;;;6.87;;
74707;SDS011;63360;50.104;8.074;2023-05-14T04:07:55;11.27;;;6.60;;
74707;SDS011;63360;50.104;8.074;2023-05-14T04:10:23;8.70;;;5.95;;
74707;SDS011;63360;50.104;8.074;2023-05-14T04:12:49;12.60;;;6.55;;
74707;SDS011;63360;50.104;8.074;2023-05-14T04:15:16;14.00;;;6.80;;
74707;SDS011;63360;50.104;8.074;2023-05-14T04:17:42;10.33;;;6.07;;
74707;SDS011;63360;50.104;8.074;2023-05-14T04:20:09;13.35;;;7.13;;
74707;SDS011;63360;50.104;8.074;2023-05-14T04:22:35;11.40;;;6.65;;
74707;SDS011;63360;50.104;8.074;2023-05-14T04:25:02;12.88;;;6.70;;
74707;SDS011;63360;50.104;8.074;2023-05-14T04:27:28;10.75;;;6.47;;
74707;SDS011;63360;50.104;8.074;2023-05-14T04:29:54;12.57;;;6.43;;
74707;SDS011;63360;50.104;8.074;2023-05-14T04:32:21;11.23;;;6.25;;
74707;SDS011;63360;50.104;8.074;2023-05-14T04:34:48;11.57;;;6.95;;
74707;SDS011;63360;50.104;8.074;2023-05-14T04:37:14;11.15;;;6.40;;
74707;SDS011;63360;50.104;8.074;2023-05-14T04:39:40;10.25;;;6.45;;
74707;SDS011;63360;50.104;8.074;2023-05-14T04:42:07;10.03;;;6.73;;
74707;SDS011;63360;50.104;8.074;2023-05-14T04:44:34;10.52;;;6.32;;
74707;SDS011;63360;50.104;8.074;2023-05-14T04:47:02;10.82;;;6.70;;
74707;SDS011;63360;50.104;8.074;2023-05-14T04:49:29;11.55;;;6.80;;
74707;SDS011;63360;50.104;8.074;2023-05-14T04:51:56;9.35;;;6.20;;
74707;SDS011;63360;50.104;8.074;2023-05-14T04:54:22;10.87;;;6.03;;
74707;SDS011;63360;50.104;8.074;2023-05-14T04:56:49;11.65;;;6.68;;
74707;SDS011;63360;50.104;8.074;2023-05-14T04:59:16;10.05;;;6.68;;
74707;SDS011;63360;50.104;8.074;2023-05-14T05:01:42;10.68;;;6.50;;
74707;SDS011;63360;50.104;8.074;2023-05-14T05:04:09;13.00;;;8.18;;
74707;SDS011;63360;50.104;8.074;2023-05-14T05:06:35;10.63;;;7.23;;
74707;SDS011;63360;50.104;8.074;2023-05-14T05:09:02;11.50;;;7.38;;
74707;SDS011;63360;50.104;8.074;2023-05-14T05:11:28;11.73;;;7.90;;
74707;SDS011;63360;50.104;8.074;2023-05-14T05:13:55;10.80;;;7.30;;
74707;SDS011;63360;50.104;8.074;2023-05-14T05:16:21;11.75;;;7.50;;
74707;SDS011;63360;50.104;8.074;2023-05-14T05:18:48;10.97;;;7.50;;
74707;SDS011;63360;50.104;8.074;2023-05-14T05:21:14;10.00;;;6.93;;
74707;SDS011;63360;50.104;8.074;2023-05-14T05:23:40;11.27;;;6.90;;
74707;SDS011;63360;50.104;8.074;2023-05-14T05:26:07;9.57;;;6.53;;
74707;SDS011;63360;50.104;8.074;2023-05-14T05:28:33;8.85;;;6.57;;
74707;SDS011;63360;50.104;8.074;2023-05-14T05:30:59;10.13;;;7.00;;
74707;SDS011;63360;50.104;8.074;2023-05-14T05:33:26;8.85;;;6.38;;
74707;SDS011;63360;50.104;8.074;2023-05-14T05:35:52;9.52;;;6.80;;
74707;SDS011;63360;50.104;8.074;2023-05-14T05:38:19;9.02;;;6.20;;
74707;SDS011;63360;50.104;8.074;2023-05-14T05:40:45;8.40;;;6.30;;
74707;SDS011;63360;50.104;8.074;2023-05-14T05:43:13;8.57;;;5.80;;
74707;SDS011;63360;50.104;8.074;2023-05-14T05:45:40;10.15;;;6.38;;
74707;SDS011;63360;50.104;8.074;2023-05-14T05:48:06;8.18;;;6.32;;
74707;SDS011;63360;50.104;8.074;2023-05-14T05:50:33;8.02;;;6.30;;
74707;SDS011;63360;50.104;8.074;2023-05-14T05:52:59;11.65;;;6.47;;
74707;SDS011;63360;50.104;8.074;2023-05-14T05:55:26;9.83;;;6.50;;
74707;SDS011;63360;50.104;8.074;2023-05-14T05:57:52;10.38;;;6.85;;
74707;SDS011;63360;50.104;8.074;2023-05-14T06:00:19;8.80;;;6.32;;
74707;SDS011;63360;50.104;8.074;2023-05-14T06:02:46;9.68;;;5.93;;
74707;SDS011;63360;50.104;8.074;2023-05-14T06:05:12;7.40;;;5.45;;
74707;SDS011;63360;50.104;8.074;2023-05-14T06:07:38;7.07;;;5.33;;
74707;SDS011;63360;50.104;8.074;2023-05-14T06:10:05;8.73;;;5.00;;
74707;SDS011;63360;50.104;8.074;2023-05-14T06:12:32;6.85;;;4.15;;
74707;SDS011;63360;50.104;8.074;2023-05-14T06:14:58;9.32;;;5.35;;
74707;SDS011;63360;50.104;8.074;2023-05-14T06:17:25;9.65;;;5.15;;
74707;SDS011;63360;50.104;8.074;2023-05-14T06:19:52;6.57;;;4.80;;
74707;SDS011;63360;50.104;8.074;2023-05-14T06:22:18;8.77;;;4.57;;
74707;SDS011;63360;50.104;8.074;2023-05-14T06:24:45;7.25;;;5.05;;
74707;SDS011;63360;50.104;8.074;2023-05-14T06:27:11;5.30;;;3.80;;
74707;SDS011;63360;50.104;8.074;2023-05-14T06:29:37;6.13;;;4.15;;
74707;SDS011;63360;50.104;8.074;2023-05-14T06:32:04;6.67;;;3.90;;
74707;SDS011;63360;50.104;8.074;2023-05-14T06:34:31;5.80;;;3.70;;
74707;SDS011;63360;50.104;8.074;2023-05-14T06:36:57;6.80;;;4.22;;
74707;SDS011;63360;50.104;8.074;2023-05-14T06:39:24;5.68;;;3.65;;
74707;SDS011;63360;50.104;8.074;2023-05-14T06:41:50;6.95;;;4.10;;
74707;SDS011;63360;50.104;8.074;2023-05-14T06:44:17;7.53;;;3.90;;
74707;SDS011;63360;50.104;8.074;2023-05-14T06:46:44;5.60;;;3.70;;
74707;SDS011;63360;50.104;8.074;2023-05-14T06:49:10;7.68;;;3.88;;
74707;SDS011;63360;50.104;8.074;2023-05-14T06:51:37;5.00;;;3.25;;
74707;SDS011;63360;50.104;8.074;2023-05-14T06:54:04;6.38;;;3.20;;
74707;SDS011;63360;50.104;8.074;2023-05-14T06:56:30;5.03;;;3.40;;
74707;SDS011;63360;50.104;8.074;2023-05-14T06:58:57;5.35;;;3.65;;
74707;SDS011;63360;50.104;8.074;2023-05-14T07:01:23;5.57;;;3.42;;
74707;SDS011;63360;50.104;8.074;2023-05-14T07:03:49;5.43;;;3.42;;
74707;SDS011;63360;50.104;8.074;2023-05-14T07:06:16;5.57;;;3.47;;
74707;SDS011;63360;50.104;8.074;2023-05-14T07:08:42;6.33;;;3.40;;
74707;SDS011;63360;50.104;8.074;2023-05-14T07:11:11;5.43;;;3.40;;
74707;SDS011;63360;50.104;8.074;2023-05-14T07:13:41;6.15;;;3.10;;
74707;SDS011;63360;50.104;8.074;2023-05-14T07:16:08;6.65;;;4.00;;
74707;SDS011;63360;50.104;8.074;2023-05-14T07:18:37;5.60;;;3.33;;
74707;SDS011;63360;50.104;8.074;2023-05-14T07:21:03;6.60;;;3.93;;
74707;SDS011;63360;50.104;8.074;2023-05-14T07:23:32;4.97;;;3.30;;
74707;SDS011;63360;50.104;8.074;2023-05-14T07:26:01;7.70;;;3.60;;
74707;SDS011;63360;50.104;8.074;2023-05-14T07:28:28;5.00;;;3.42;;
74707;SDS011;63360;50.104;8.074;2023-05-14T07:30:54;7.20;;;3.50;;
74707;SDS011;63360;50.104;8.074;2023-05-14T07:33:21;6.00;;;3.70;;
74707;SDS011;63360;50.104;8.074;2023-05-14T07:35:47;6.07;;;3.53;;
74707;SDS011;63360;50.104;8.074;2023-05-14T07:38:14;6.85;;;3.60;;
74707;SDS011;63360;50.104;8.074;2023-05-14T07:40:40;5.07;;;3.50;;
74707;SDS011;63360;50.104;8.074;2023-05-14T07:43:07;6.38;;;3.60;;
74707;SDS011;63360;50.104;8.074;2023-05-14T07:45:35;5.90;;;3.60;;
74707;SDS011;63360;50.104;8.074;2023-05-14T07:48:02;4.20;;;2.72;;
74707;SDS011;63360;50.104;8.074;2023-05-14T07:50:29;3.95;;;2.53;;
74707;SDS011;63360;50.104;8.074;2023-05-14T07:52:56;3.90;;;2.55;;
74707;SDS011;63360;50.104;8.074;2023-05-14T07:55:22;4.50;;;2.97;;
74707;SDS011;63360;50.104;8.074;2023-05-14T07:57:49;5.07;;;2.90;;
74707;SDS011;63360;50.104;8.074;2023-05-14T08:00:15;6.45;;;3.10;;
74707;SDS011;63360;50.104;8.074;2023-05-14T08:02:42;5.18;;;3.00;;
74707;SDS011;63360;50.104;8.074;2023-05-14T08:05:09;6.00;;;2.90;;
74707;SDS011;63360;50.104;8.074;2023-05-14T08:07:36;6.28;;;3.20;;
74707;SDS011;63360;50.104;8.074;2023-05-14T08:10:02;4.33;;;3.00;;
74707;SDS011;63360;50.104;8.074;2023-05-14T08:12:29;4.78;;;2.85;;
74707;SDS011;63360;50.104;8.074;2023-05-14T08:14:55;4.28;;;3.08;;
74707;SDS011;63360;50.104;8.074;2023-05-14T08:17:22;6.63;;;3.55;;
74707;SDS011;63360;50.104;8.074;2023-05-14T08:19:48;4.55;;;3.20;;
74707;SDS011;63360;50.104;8.074;2023-05-14T08:22:14;5.53;;;3.03;;
74707;SDS011;63360;50.104;8.074;2023-05-14T08:24:41;5.43;;;3.25;;
74707;SDS011;63360;50.104;8.074;2023-05-14T08:27:08;5.25;;;3.60;;
74707;SDS011;63360;50.104;8.074;2023-05-14T08:29:34;4.18;;;2.85;;
74707;SDS011;63360;50.104;8.074;2023-05-14T08:32:01;4.20;;;2.95;;
74707;SDS011;63360;50.104;8.074;2023-05-14T08:34:40;5.30;;;3.33;;
74707;SDS011;63360;50.104;8.074;2023-05-14T08:37:09;4.80;;;3.22;;
74707;SDS011;63360;50.104;8.074;2023-05-14T08:39:35;5.20;;;3.13;;
74707;SDS011;63360;50.104;8.074;2023-05-14T08:42:02;5.13;;;3.13;;
74707;SDS011;63360;50.104;8.074;2023-05-14T08:44:38;4.20;;;2.97;;
74707;SDS011;63360;50.104;8.074;2023-05-14T08:47:10;5.30;;;3.53;;
74707;SDS011;63360;50.104;8.074;2023-05-14T08:49:45;4.95;;;3.30;;
74707;SDS011;63360;50.104;8.074;2023-05-14T08:52:12;5.68;;;3.50;;
74707;SDS011;63360;50.104;8.074;2023-05-14T08:54:43;5.25;;;3.67;;
74707;SDS011;63360;50.104;8.074;2023-05-14T08:57:10;5.80;;;3.33;;
74707;SDS011;63360;50.104;8.074;2023-05-14T08:59:38;4.90;;;3.07;;
74707;SDS011;63360;50.104;8.074;2023-05-14T09:02:04;4.30;;;3.05;;
74707;SDS011;63360;50.104;8.074;2023-05-14T09:04:32;5.05;;;3.53;;
74707;SDS011;63360;50.104;8.074;2023-05-14T09:07:00;5.25;;;2.88;;
74707;SDS011;63360;50.104;8.074;2023-05-14T09:09:27;4.95;;;3.30;;
74707;SDS011;63360;50.104;8.074;2023-05-14T09:11:54;5.83;;;3.10;;
74707;SDS011;63360;50.104;8.074;2023-05-14T09:14:21;4.95;;;3.00;;
74707;SDS011;63360;50.104;8.074;2023-05-14T09:16:48;5.53;;;3.22;;
74707;SDS011;63360;50.104;8.074;2023-05-14T09:19:16;4.95;;;2.97;;
74707;SDS011;63360;50.104;8.074;2023-05-14T09:21:46;5.10;;;3.08;;
74707;SDS011;63360;50.104;8.074;2023-05-14T09:24:18;4.70;;;3.30;;
74707;SDS011;63360;50.104;8.074;2023-05-14T09:26:48;4.82;;;3.05;;
74707;SDS011;63360;50.104;8.074;2023-05-14T09:29:16;4.80;;;3.15;;
74707;SDS011;63360;50.104;8.074;2023-05-14T09:31:43;4.30;;;3.00;;
74707;SDS011;63360;50.104;8.074;2023-05-14T09:34:10;4.40;;;3.00;;
74707;SDS011;63360;50.104;8.074;2023-05-14T09:36:36;4.37;;;2.87;;
74707;SDS011;63360;50.104;8.074;2023-05-14T09:39:03;4.75;;;3.10;;
74707;SDS011;63360;50.104;8.074;2023-05-14T09:41:30;4.80;;;2.83;;
74707;SDS011;63360;50.104;8.074;2023-05-14T09:43:56;5.90;;;3.20;;
74707;SDS011;63360;50.104;8.074;2023-05-14T09:46:23;4.15;;;2.92;;
74707;SDS011;63360;50.104;8.074;2023-05-14T09:48:49;6.00;;;3.40;;
74707;SDS011;63360;50.104;8.074;2023-05-14T09:51:15;5.35;;;3.30;;
74707;SDS011;63360;50.104;8.074;2023-05-14T09:53:46;6.43;;;3.00;;
74707;SDS011;63360;50.104;8.074;2023-05-14T09:56:12;4.82;;;3.10;;
74707;SDS011;63360;50.104;8.074;2023-05-14T09:58:39;4.30;;;3.20;;
74707;SDS011;63360;50.104;8.074;2023-05-14T10:01:05;4.20;;;3.10;;
74707;SDS011;63360;50.104;8.074;2023-05-14T10:03:32;5.68;;;3.40;;
74707;SDS011;63360;50.104;8.074;2023-05-14T10:06:00;5.20;;;3.42;;
74707;SDS011;63360;50.104;8.074;2023-05-14T10:08:33;7.68;;;3.40;;
74707;SDS011;63360;50.104;8.074;2023-05-14T10:11:02;5.07;;;3.53;;
74707;SDS011;63360;50.104;8.074;2023-05-14T10:13:36;6.10;;;3.20;;
74707;SDS011;63360;50.104;8.074;2023-05-14T10:16:13;4.97;;;2.70;;
74707;SDS011;63360;50.104;8.074;2023-05-14T10:18:45;4.85;;;3.00;;
74707;SDS011;63360;50.104;8.074;2023-05-14T10:21:18;5.68;;;3.30;;
74707;SDS011;63360;50.104;8.074;2023-05-14T10:23:46;5.60;;;3.00;;
74707;SDS011;63360;50.104;8.074;2023-05-14T10:26:14;3.60;;;2.70;;
74707;SDS011;63360;50.104;8.074;2023-05-14T10:28:40;5.07;;;2.83;;
74707;SDS011;63360;50.104;8.074;2023-05-14T10:31:08;3.90;;;2.80;;
74707;SDS011;63360;50.104;8.074;2023-05-14T10:33:50;3.83;;;2.40;;
74707;SDS011;63360;50.104;8.074;2023-05-14T10:36:17;7.30;;;5.10;;
74707;SDS011;63360;50.104;8.074;2023-05-14T10:38:43;7.43;;;4.77;;
74707;SDS011;63360;50.104;8.074;2023-05-14T10:41:13;5.10;;;3.58;;
74707;SDS011;63360;50.104;8.074;2023-05-14T10:43:43;4.63;;;3.00;;
74707;SDS011;63360;50.104;8.074;2023-05-14T10:46:10;4.25;;;2.60;;
74707;SDS011;63360;50.104;8.074;2023-05-14T10:48:42;3.83;;;2.55;;
74707;SDS011;63360;50.104;8.074;2023-05-14T10:51:09;4.83;;;2.57;;
74707;SDS011;63360;50.104;8.074;2023-05-14T10:56:08;4.68;;;3.05;;
74707;SDS011;63360;50.104;8.074;2023-05-14T10:58:36;3.65;;;2.47;;
74707;SDS011;63360;50.104;8.074;2023-05-14T11:01:06;4.65;;;3.10;;
74707;SDS011;63360;50.104;8.074;2023-05-14T11:03:38;4.90;;;3.23;;
74707;SDS011;63360;50.104;8.074;2023-05-14T11:06:07;4.80;;;3.10;;
74707;SDS011;63360;50.104;8.074;2023-05-14T11:08:35;4.47;;;3.10;;
74707;SDS011;63360;50.104;8.074;2023-05-14T11:11:02;4.28;;;3.28;;
74707;SDS011;63360;50.104;8.074;2023-05-14T11:13:28;4.20;;;2.88;;
74707;SDS011;63360;50.104;8.074;2023-05-14T11:15:55;7.50;;;2.70;;
74707;SDS011;63360;50.104;8.074;2023-05-14T11:18:29;4.18;;;2.58;;
74707;SDS011;63360;50.104;8.074;2023-05-14T11:20:59;4.00;;;2.70;;
74707;SDS011;63360;50.104;8.074;2023-05-14T11:23:26;3.50;;;2.50;;
74707;SDS011;63360;50.104;8.074;2023-05-14T11:25:54;5.93;;;3.70;;
74707;SDS011;63360;50.104;8.074;2023-05-14T11:28:22;4.30;;;2.97;;
74707;SDS011;63360;50.104;8.074;2023-05-14T11:30:49;4.47;;;2.88;;
74707;SDS011;63360;50.104;8.074;2023-05-14T11:33:17;4.82;;;2.65;;
74707;SDS011;63360;50.104;8.074;2023-05-14T11:35:44;7.15;;;2.78;;
74707;SDS011;63360;50.104;8.074;2023-05-14T11:38:18;6.13;;;2.95;;
74707;SDS011;63360;50.104;8.074;2023-05-14T11:40:55;6.10;;;3.63;;
74707;SDS011;63360;50.104;8.074;2023-05-14T11:43:23;5.05;;;2.90;;
74707;SDS011;63360;50.104;8.074;2023-05-14T11:45:53;4.78;;;2.92;;
74707;SDS011;63360;50.104;8.074;2023-05-14T11:48:21;4.38;;;2.80;;
74707;SDS011;63360;50.104;8.074;2023-05-14T11:50:50;6.50;;;2.47;;
74707;SDS011;63360;50.104;8.074;2023-05-14T11:53:18;3.83;;;2.50;;
74707;SDS011;63360;50.104;8.074;2023-05-14T11:55:45;5.55;;;2.55;;
74707;SDS011;63360;50.104;8.074;2023-05-14T11:58:13;3.30;;;2.33;;
74707;SDS011;63360;50.104;8.074;2023-05-14T12:00:42;5.03;;;2.55;;
74707;SDS011;63360;50.104;8.074;2023-05-14T12:03:10;3.42;;;2.50;;
74707;SDS011;63360;50.104;8.074;2023-05-14T12:05:40;4.23;;;2.50;;
74707;SDS011;63360;50.104;8.074;2023-05-14T12:08:22;3.50;;;2.22;;
74707;SDS011;63360;50.104;8.074;2023-05-14T12:10:52;3.20;;;2.10;;
74707;SDS011;63360;50.104;8.074;2023-05-14T12:13:19;5.90;;;2.35;;
74707;SDS011;63360;50.104;8.074;2023-05-14T12:15:55;3.95;;;2.30;;
74707;SDS011;63360;50.104;8.074;2023-05-14T12:18:23;3.17;;;2.40;;
74707;SDS011;63360;50.104;8.074;2023-05-14T12:20:50;4.90;;;2.35;;
74707;SDS011;63360;50.104;8.074;2023-05-14T12:23:23;5.70;;;2.50;;
74707;SDS011;63360;50.104;8.074;2023-05-14T12:25:54;3.58;;;2.50;;
74707;SDS011;63360;50.104;8.074;2023-05-14T12:28:26;3.33;;;2.30;;
74707;SDS011;63360;50.104;8.074;2023-05-14T12:30:57;3.37;;;2.20;;
74707;SDS011;63360;50.104;8.074;2023-05-14T12:33:27;4.00;;;2.38;;
74707;SDS011;63360;50.104;8.074;2023-05-14T12:35:53;3.92;;;2.40;;
74707;SDS011;63360;50.104;8.074;2023-05-14T12:38:30;3.05;;;2.40;;
74707;SDS011;63360;50.104;8.074;2023-05-14T12:40:56;5.05;;;2.50;;
74707;SDS011;63360;50.104;8.074;2023-05-14T12:43:23;3.50;;;2.43;;
74707;SDS011;63360;50.104;8.074;2023-05-14T12:45:49;3.97;;;2.13;;
74707;SDS011;63360;50.104;8.074;2023-05-14T12:48:16;4.47;;;2.15;;
74707;SDS011;63360;50.104;8.074;2023-05-14T12:50:42;6.05;;;2.30;;
74707;SDS011;63360;50.104;8.074;2023-05-14T12:53:08;4.22;;;2.03;;
74707;SDS011;63360;50.104;8.074;2023-05-14T12:55:35;2.67;;;1.80;;
74707;SDS011;63360;50.104;8.074;2023-05-14T12:58:02;3.20;;;2.20;;
74707;SDS011;63360;50.104;8.074;2023-05-14T13:00:28;3.58;;;1.88;;
74707;SDS011;63360;50.104;8.074;2023-05-14T13:02:55;3.72;;;2.20;;
74707;SDS011;63360;50.104;8.074;2023-05-14T13:05:21;4.07;;;1.90;;
74707;SDS011;63360;50.104;8.074;2023-05-14T13:07:50;2.70;;;1.90;;
74707;SDS011;63360;50.104;8.074;2023-05-14T13:10:17;3.17;;;2.03;;
74707;SDS011;63360;50.104;8.074;2023-05-14T13:12:44;3.53;;;2.25;;
74707;SDS011;63360;50.104;8.074;2023-05-14T13:15:10;2.67;;;1.98;;
74707;SDS011;63360;50.104;8.074;2023-05-14T13:17:37;4.50;;;2.00;;
74707;SDS011;63360;50.104;8.074;2023-05-14T13:20:03;3.37;;;2.33;;
74707;SDS011;63360;50.104;8.074;2023-05-14T13:22:30;3.60;;;2.08;;
74707;SDS011;63360;50.104;8.074;2023-05-14T13:24:56;3.58;;;2.30;;
74707;SDS011;63360;50.104;8.074;2023-05-14T13:27:23;3.30;;;1.98;;
74707;SDS011;63360;50.104;8.074;2023-05-14T13:29:50;2.60;;;1.90;;
74707;SDS011;63360;50.104;8.074;2023-05-14T13:32:16;2.77;;;2.03;;
74707;SDS011;63360;50.104;8.074;2023-05-14T13:34:42;2.88;;;2.10;;
74707;SDS011;63360;50.104;8.074;2023-05-14T13:37:09;4.07;;;2.08;;
74707;SDS011;63360;50.104;8.074;2023-05-14T13:39:36;2.60;;;1.80;;
74707;SDS011;63360;50.104;8.074;2023-05-14T13:42:02;3.17;;;2.13;;
74707;SDS011;63360;50.104;8.074;2023-05-14T13:44:29;3.37;;;1.93;;
74707;SDS011;63360;50.104;8.074;2023-05-14T13:46:55;2.50;;;1.88;;
74707;SDS011;63360;50.104;8.074;2023-05-14T13:49:22;2.97;;;1.88;;
74707;SDS011;63360;50.104;8.074;2023-05-14T13:51:48;3.55;;;2.03;;
74707;SDS011;63360;50.104;8.074;2023-05-14T13:54:14;4.30;;;2.20;;
74707;SDS011;63360;50.104;8.074;2023-05-14T13:56:41;3.83;;;1.80;;
74707;SDS011;63360;50.104;8.074;2023-05-14T13:59:07;3.05;;;2.20;;
74707;SDS011;63360;50.104;8.074;2023-05-14T14:01:33;4.68;;;2.00;;
74707;SDS011;63360;50.104;8.074;2023-05-14T14:04:00;3.45;;;2.00;;
74707;SDS011;63360;50.104;8.074;2023-05-14T14:06:26;2.58;;;1.98;;
74707;SDS011;63360;50.104;8.074;2023-05-14T14:08:55;2.70;;;1.90;;
74707;SDS011;63360;50.104;8.074;2023-05-14T14:11:22;3.35;;;2.03;;
74707;SDS011;63360;50.104;8.074;2023-05-14T14:13:48;3.80;;;2.33;;
74707;SDS011;63360;50.104;8.074;2023-05-14T14:16:15;5.63;;;2.10;;
74707;SDS011;63360;50.104;8.074;2023-05-14T14:18:41;3.10;;;2.20;;
74707;SDS011;63360;50.104;8.074;2023-05-14T14:21:08;4.00;;;2.07;;
74707;SDS011;63360;50.104;8.074;2023-05-14T14:23:35;3.33;;;2.20;;
74707;SDS011;63360;50.104;8.074;2023-05-14T14:26:01;3.05;;;2.05;;
74707;SDS011;63360;50.104;8.074;2023-05-14T14:28:28;3.03;;;2.00;;
74707;SDS011;63360;50.104;8.074;2023-05-14T14:30:55;4.15;;;2.10;;
74707;SDS011;63360;50.104;8.074;2023-05-14T14:33:21;3.77;;;1.87;;
74707;SDS011;63360;50.104;8.074;2023-05-14T14:35:48;3.10;;;2.00;;
74707;SDS011;63360;50.104;8.074;2023-05-14T14:38:14;3.85;;;1.88;;
74707;SDS011;63360;50.104;8.074;2023-05-14T14:40:40;3.17;;;1.83;;
74707;SDS011;63360;50.104;8.074;2023-05-14T14:43:07;2.50;;;1.90;;
74707;SDS011;63360;50.104;8.074;2023-05-14T14:45:33;3.43;;;1.90;;
74707;SDS011;63360;50.104;8.074;2023-05-14T14:50:48;2.72;;;1.70;;
74707;SDS011;63360;50.104;8.074;2023-05-14T14:53:14;3.08;;;1.98;;
74707;SDS011;63360;50.104;8.074;2023-05-14T14:55:40;3.17;;;1.95;;